sensor_id;sensor_type;location;lat;lon;timestamp;pressure;altitude;pressure_sealevel;temperature;humidity
57562;BME280;43397;51.530;5.974;2023-04-26T00:01:00;76768.94;;;-145.90;39.65
57562;BME280;43397;51.530;5.974;2023-04-26T00:03:26;76762.84;;;-145.90;39.74
57562;BME280;43397;51.530;5.974;2023-04-26T00:05:52;76742.56;;;-145.90;39.55
57562;BME280;43397;51.530;5.974;2023-04-26T00:08:18;76807.44;;;-145.90;40.36
57562;BME280;43397;51.530;5.974;2023-04-26T00:10:44;76795.28;;;-145.90;39.94
57562;BME280;43397;51.530;5.974;2023-04-26T00:13:10;76799.34;;;-145.90;38.17
57562;BME280;43397;51.530;5.974;2023-04-26T00:15:35;76793.25;;;-145.90;37.81
57562;BME280;43397;51.530;5.974;2023-04-26T00:18:02;76845.97;;;-145.90;37.62
57562;BME280;43397;51.530;5.974;2023-04-26T00:20:28;76886.50;;;-145.90;38.02
57562;BME280;43397;51.530;5.974;2023-04-26T00:22:53;76898.69;;;-145.90;37.92
57562;BME280;43397;51.530;5.974;2023-04-26T00:25:20;76916.94;;;-145.90;37.96
57562;BME280;43397;51.530;5.974;2023-04-26T00:27:46;76941.25;;;-145.90;38.13
57562;BME280;43397;51.530;5.974;2023-04-26T00:30:13;76971.66;;;-145.90;38.21
57562;BME280;43397;51.530;5.974;2023-04-26T00:32:39;76998.03;;;-145.90;38.26
57562;BME280;43397;51.530;5.974;2023-04-26T00:35:05;77000.03;;;-145.90;38.20
57562;BME280;43397;51.530;5.974;2023-04-26T00:37:31;77050.72;;;-145.90;38.75
57562;BME280;43397;51.530;5.974;2023-04-26T00:39:56;77058.84;;;-145.90;38.72
57562;BME280;43397;51.530;5.974;2023-04-26T00:42:23;77073.03;;;-145.90;38.96
57562;BME280;43397;51.530;5.974;2023-04-26T00:44:51;77062.91;;;-145.90;39.01
57562;BME280;43397;51.530;5.974;2023-04-26T00:47:16;77064.91;;;-145.90;39.26
57562;BME280;43397;51.530;5.974;2023-04-26T00:49:42;77052.75;;;-145.90;38.80
57562;BME280;43397;51.530;5.974;2023-04-26T00:52:08;77079.13;;;-145.90;38.64
57562;BME280;43397;51.530;5.974;2023-04-26T00:54:34;77052.75;;;-145.90;38.67
57562;BME280;43397;51.530;5.974;2023-04-26T00:57:01;77040.59;;;-145.90;38.83
57562;BME280;43397;51.530;5.974;2023-04-26T00:59:28;77036.53;;;-145.90;38.76
57562;BME280;43397;51.530;5.974;2023-04-26T01:01:54;76985.84;;;-145.90;40.36
57562;BME280;43397;51.530;5.974;2023-04-26T01:04:20;76969.63;;;-145.90;39.64
57562;BME280;43397;51.530;5.974;2023-04-26T01:06:46;76947.34;;;-145.90;39.68
57562;BME280;43397;51.530;5.974;2023-04-26T01:09:12;76951.38;;;-145.90;38.70
57562;BME280;43397;51.530;5.974;2023-04-26T01:11:37;76971.66;;;-145.90;39.95
57562;BME280;43397;51.530;5.974;2023-04-26T01:14:04;76957.47;;;-145.90;39.07
57562;BME280;43397;51.530;5.974;2023-04-26T01:16:31;76973.69;;;-145.90;38.61
57562;BME280;43397;51.530;5.974;2023-04-26T01:18:57;76963.56;;;-145.90;38.85
57562;BME280;43397;51.530;5.974;2023-04-26T01:21:23;76998.03;;;-145.90;38.42
57562;BME280;43397;51.530;5.974;2023-04-26T01:23:51;77050.72;;;-145.90;38.13
57562;BME280;43397;51.530;5.974;2023-04-26T01:26:17;77056.81;;;-145.90;38.35
57562;BME280;43397;51.530;5.974;2023-04-26T01:28:43;77034.50;;;-145.90;38.25
57562;BME280;43397;51.530;5.974;2023-04-26T01:31:08;77056.81;;;-145.90;38.73
57562;BME280;43397;51.530;5.974;2023-04-26T01:33:34;77052.75;;;-145.90;38.97
57562;BME280;43397;51.530;5.974;2023-04-26T01:36:00;77046.69;;;-145.90;38.54
57562;BME280;43397;51.530;5.974;2023-04-26T01:38:25;77068.97;;;-145.90;38.74
57562;BME280;43397;51.530;5.974;2023-04-26T01:40:53;77123.72;;;-145.90;38.61
57562;BME280;43397;51.530;5.974;2023-04-26T01:43:18;77119.66;;;-145.90;38.50
57562;BME280;43397;51.530;5.974;2023-04-26T01:45:45;77101.41;;;-145.90;37.96
57562;BME280;43397;51.530;5.974;2023-04-26T01:48:11;77123.72;;;-145.90;38.01
57562;BME280;43397;51.530;5.974;2023-04-26T01:50:36;77164.25;;;-145.90;38.40
57562;BME280;43397;51.530;5.974;2023-04-26T01:53:02;77178.47;;;-145.90;39.25
57562;BME280;43397;51.530;5.974;2023-04-26T01:55:28;77182.50;;;-145.90;38.89
57562;BME280;43397;51.530;5.974;2023-04-26T01:57:55;77208.88;;;-145.90;39.14
57562;BME280;43397;51.530;5.974;2023-04-26T02:00:20;77196.72;;;-145.90;38.58
57562;BME280;43397;51.530;5.974;2023-04-26T02:02:46;77188.59;;;-145.90;38.87
57562;BME280;43397;51.530;5.974;2023-04-26T02:05:12;77210.91;;;-145.90;38.88
57562;BME280;43397;51.530;5.974;2023-04-26T02:07:37;77210.91;;;-145.90;38.29
57562;BME280;43397;51.530;5.974;2023-04-26T02:10:04;77206.84;;;-145.90;38.64
57562;BME280;43397;51.530;5.974;2023-04-26T02:12:30;77214.94;;;-145.90;38.52
57562;BME280;43397;51.530;5.974;2023-04-26T02:14:57;77235.22;;;-145.90;38.55
57562;BME280;43397;51.530;5.974;2023-04-26T02:17:24;77235.22;;;-145.90;38.88
57562;BME280;43397;51.530;5.974;2023-04-26T02:19:49;77247.41;;;-145.90;38.65
57562;BME280;43397;51.530;5.974;2023-04-26T02:22:15;77225.09;;;-145.90;39.21
57562;BME280;43397;51.530;5.974;2023-04-26T02:24:41;77214.94;;;-145.90;38.39
57562;BME280;43397;51.530;5.974;2023-04-26T02:27:06;77245.38;;;-145.90;38.33
57562;BME280;43397;51.530;5.974;2023-04-26T02:29:32;77253.47;;;-145.90;38.37
57562;BME280;43397;51.530;5.974;2023-04-26T02:31:59;77261.59;;;-145.90;38.73
57562;BME280;43397;51.530;5.974;2023-04-26T02:34:25;77255.50;;;-145.90;38.66
57562;BME280;43397;51.530;5.974;2023-04-26T02:36:50;77225.09;;;-145.90;38.60
57562;BME280;43397;51.530;5.974;2023-04-26T02:39:16;77225.09;;;-145.90;38.23
57562;BME280;43397;51.530;5.974;2023-04-26T02:41:42;77184.53;;;-145.90;38.66
57562;BME280;43397;51.530;5.974;2023-04-26T02:44:07;77190.63;;;-145.90;38.80
57562;BME280;43397;51.530;5.974;2023-04-26T02:46:33;77192.66;;;-145.90;38.42
57562;BME280;43397;51.530;5.974;2023-04-26T02:49:00;77235.22;;;-145.90;38.64
57562;BME280;43397;51.530;5.974;2023-04-26T02:51:27;77239.28;;;-145.90;38.99
57562;BME280;43397;51.530;5.974;2023-04-26T02:53:52;77216.97;;;-145.90;39.11
57562;BME280;43397;51.530;5.974;2023-04-26T02:56:18;77223.06;;;-145.90;38.94
57562;BME280;43397;51.530;5.974;2023-04-26T02:58:44;77231.16;;;-145.90;38.63
57562;BME280;43397;51.530;5.974;2023-04-26T03:01:09;77255.50;;;-145.90;39.29
57562;BME280;43397;51.530;5.974;2023-04-26T03:03:35;77241.31;;;-145.90;39.17
57562;BME280;43397;51.530;5.974;2023-04-26T03:06:02;77241.31;;;-145.90;38.37
57562;BME280;43397;51.530;5.974;2023-04-26T03:08:28;77225.09;;;-145.90;38.57
57562;BME280;43397;51.530;5.974;2023-04-26T03:10:53;77255.50;;;-145.90;38.55
57562;BME280;43397;51.530;5.974;2023-04-26T03:13:21;77251.44;;;-145.90;38.57
57562;BME280;43397;51.530;5.974;2023-04-26T03:15:47;77239.28;;;-145.90;38.25
57562;BME280;43397;51.530;5.974;2023-04-26T03:18:13;77235.22;;;-145.90;37.83
57562;BME280;43397;51.530;5.974;2023-04-26T03:20:38;77235.22;;;-145.90;37.79
57562;BME280;43397;51.530;5.974;2023-04-26T03:23:05;77223.06;;;-145.90;37.57
57562;BME280;43397;51.530;5.974;2023-04-26T03:25:31;77231.16;;;-145.90;37.95
57562;BME280;43397;51.530;5.974;2023-04-26T03:27:57;77237.25;;;-145.90;38.40
57562;BME280;43397;51.530;5.974;2023-04-26T03:30:23;77227.13;;;-145.90;38.84
57562;BME280;43397;51.530;5.974;2023-04-26T03:32:48;77214.94;;;-145.90;38.44
57562;BME280;43397;51.530;5.974;2023-04-26T03:35:14;77206.84;;;-145.90;38.71
57562;BME280;43397;51.530;5.974;2023-04-26T03:37:40;77216.97;;;-145.90;38.53
57562;BME280;43397;51.530;5.974;2023-04-26T03:40:08;77227.13;;;-145.90;38.11
57562;BME280;43397;51.530;5.974;2023-04-26T03:42:34;77221.03;;;-145.90;37.67
57562;BME280;43397;51.530;5.974;2023-04-26T03:44:59;77229.16;;;-145.90;37.82
57562;BME280;43397;51.530;5.974;2023-04-26T03:47:25;77214.94;;;-145.90;38.08
57562;BME280;43397;51.530;5.974;2023-04-26T03:49:51;77235.22;;;-145.90;37.66
57562;BME280;43397;51.530;5.974;2023-04-26T03:52:16;77247.41;;;-145.90;38.43
57562;BME280;43397;51.530;5.974;2023-04-26T03:54:42;77225.09;;;-145.90;38.03
57562;BME280;43397;51.530;5.974;2023-04-26T03:57:09;77249.41;;;-145.90;38.23
57562;BME280;43397;51.530;5.974;2023-04-26T03:59:35;77261.59;;;-145.90;38.27
57562;BME280;43397;51.530;5.974;2023-04-26T04:02:00;77267.66;;;-145.90;38.51
57562;BME280;43397;51.530;5.974;2023-04-26T04:04:26;77275.78;;;-145.90;38.91
57562;BME280;43397;51.530;5.974;2023-04-26T04:06:52;77251.44;;;-145.90;38.82
57562;BME280;43397;51.530;5.974;2023-04-26T04:09:17;77269.69;;;-145.90;39.10
57562;BME280;43397;51.530;5.974;2023-04-26T04:11:43;77233.19;;;-145.90;38.95
57562;BME280;43397;51.530;5.974;2023-04-26T04:14:10;77235.22;;;-145.90;39.18
57562;BME280;43397;51.530;5.974;2023-04-26T04:16:35;77219.00;;;-145.90;38.95
57562;BME280;43397;51.530;5.974;2023-04-26T04:19:01;77206.84;;;-145.90;38.90
57562;BME280;43397;51.530;5.974;2023-04-26T04:21:27;77170.34;;;-145.90;38.20
57562;BME280;43397;51.530;5.974;2023-04-26T04:23:52;77174.41;;;-145.90;38.16
57562;BME280;43397;51.530;5.974;2023-04-26T04:26:18;77198.72;;;-145.90;38.04
57562;BME280;43397;51.530;5.974;2023-04-26T04:28:44;77148.03;;;-145.90;37.83
57562;BME280;43397;51.530;5.974;2023-04-26T04:31:10;77123.72;;;-145.90;37.23
57562;BME280;43397;51.530;5.974;2023-04-26T04:33:36;77123.72;;;-145.90;37.46
57562;BME280;43397;51.530;5.974;2023-04-26T04:36:02;77119.66;;;-145.90;37.99
57562;BME280;43397;51.530;5.974;2023-04-26T04:38:28;77170.34;;;-145.90;38.41
57562;BME280;43397;51.530;5.974;2023-04-26T04:40:53;77144.00;;;-145.90;38.44
57562;BME280;43397;51.530;5.974;2023-04-26T04:43:19;77123.72;;;-145.90;38.09
57562;BME280;43397;51.530;5.974;2023-04-26T04:45:45;77109.53;;;-145.90;38.72
57562;BME280;43397;51.530;5.974;2023-04-26T04:48:12;77099.38;;;-145.90;38.98
57562;BME280;43397;51.530;5.974;2023-04-26T04:50:37;77052.75;;;-145.90;38.95
57562;BME280;43397;51.530;5.974;2023-04-26T04:53:03;77028.44;;;-145.90;38.39
57562;BME280;43397;51.530;5.974;2023-04-26T04:55:29;77026.41;;;-145.90;37.98
57562;BME280;43397;51.530;5.974;2023-04-26T04:57:54;76991.94;;;-145.90;38.16
57562;BME280;43397;51.530;5.974;2023-04-26T05:00:20;76939.22;;;-145.90;38.19
57562;BME280;43397;51.530;5.974;2023-04-26T05:02:46;76902.72;;;-145.90;37.99
57562;BME280;43397;51.530;5.974;2023-04-26T05:05:13;76864.22;;;-145.90;37.96
57562;BME280;43397;51.530;5.974;2023-04-26T05:07:39;76811.50;;;-145.90;37.79
57562;BME280;43397;51.530;5.974;2023-04-26T05:10:05;76819.63;;;-145.90;38.36
57562;BME280;43397;51.530;5.974;2023-04-26T05:12:31;76768.94;;;-145.90;38.06
57562;BME280;43397;51.530;5.974;2023-04-26T05:14:57;76744.59;;;-145.90;37.98
57562;BME280;43397;51.530;5.974;2023-04-26T05:17:22;76752.72;;;-145.90;38.15
57562;BME280;43397;51.530;5.974;2023-04-26T05:19:48;76748.66;;;-145.90;38.45
57562;BME280;43397;51.530;5.974;2023-04-26T05:22:15;76728.38;;;-145.90;38.49
57562;BME280;43397;51.530;5.974;2023-04-26T05:24:41;76653.38;;;-145.90;37.99
57562;BME280;43397;51.530;5.974;2023-04-26T05:27:06;76641.22;;;-145.90;38.28
57562;BME280;43397;51.530;5.974;2023-04-26T05:29:32;76574.31;;;-145.90;38.01
57562;BME280;43397;51.530;5.974;2023-04-26T05:31:58;76602.69;;;-145.90;38.84
57562;BME280;43397;51.530;5.974;2023-04-26T05:34:23;76543.91;;;-145.90;38.83
57562;BME280;43397;51.530;5.974;2023-04-26T05:36:49;76495.25;;;-145.90;38.96
57562;BME280;43397;51.530;5.974;2023-04-26T05:39:16;76511.47;;;-145.90;39.56
57562;BME280;43397;51.530;5.974;2023-04-26T05:41:42;76458.78;;;-145.90;39.31
57562;BME280;43397;51.530;5.974;2023-04-26T05:44:07;76418.22;;;-145.90;39.40
57562;BME280;43397;51.530;5.974;2023-04-26T05:46:33;76434.44;;;-145.90;39.52
57562;BME280;43397;51.530;5.974;2023-04-26T05:48:59;76410.13;;;-145.90;39.48
57562;BME280;43397;51.530;5.974;2023-04-26T05:51:24;76298.63;;;-145.90;38.71
57562;BME280;43397;51.530;5.974;2023-04-26T05:53:50;76266.22;;;-145.90;38.31
57562;BME280;43397;51.530;5.974;2023-04-26T05:56:17;76183.09;;;-145.90;37.55
57562;BME280;43397;51.530;5.974;2023-04-26T05:58:42;76160.81;;;-145.90;37.40
57562;BME280;43397;51.530;5.974;2023-04-26T06:01:08;76069.59;;;-145.90;37.01
57562;BME280;43397;51.530;5.974;2023-04-26T06:03:34;76065.53;;;-145.90;36.94
57562;BME280;43397;51.530;5.974;2023-04-26T06:05:59;76025.00;;;-145.90;36.50
57562;BME280;43397;51.530;5.974;2023-04-26T06:08:25;76061.47;;;-145.90;36.13
57562;BME280;43397;51.530;5.974;2023-04-26T06:10:51;76112.16;;;-145.90;36.61
57562;BME280;43397;51.530;5.974;2023-04-26T06:13:18;76170.94;;;-145.90;36.89
57562;BME280;43397;51.530;5.974;2023-04-26T06:15:43;76172.97;;;-145.90;36.62
57562;BME280;43397;51.530;5.974;2023-04-26T06:18:09;76162.81;;;-145.90;37.02
57562;BME280;43397;51.530;5.974;2023-04-26T06:20:35;76130.41;;;-145.90;36.69
57562;BME280;43397;51.530;5.974;2023-04-26T06:23:00;76175.00;;;-145.90;36.73
57562;BME280;43397;51.530;5.974;2023-04-26T06:25:26;76025.00;;;-145.90;36.66
57562;BME280;43397;51.530;5.974;2023-04-26T06:27:51;76063.50;;;-145.90;36.66
57562;BME280;43397;51.530;5.974;2023-04-26T06:30:19;75952.03;;;-145.90;36.44
57562;BME280;43397;51.530;5.974;2023-04-26T06:32:44;75856.78;;;-145.90;34.25
57562;BME280;43397;51.530;5.974;2023-04-26T06:35:10;75795.97;;;-145.90;34.51
57562;BME280;43397;51.530;5.974;2023-04-26T06:37:36;75763.53;;;-145.90;34.23
57562;BME280;43397;51.530;5.974;2023-04-26T06:40:02;75633.84;;;-145.90;32.60
57562;BME280;43397;51.530;5.974;2023-04-26T06:42:28;75621.66;;;-145.90;33.04
57562;BME280;43397;51.530;5.974;2023-04-26T06:44:54;75617.63;;;-145.90;32.69
57562;BME280;43397;51.530;5.974;2023-04-26T06:47:21;75540.59;;;-145.90;31.87
57562;BME280;43397;51.530;5.974;2023-04-26T06:49:47;75536.56;;;-145.90;30.78
57562;BME280;43397;51.530;5.974;2023-04-26T06:52:12;75556.81;;;-145.90;31.99
57562;BME280;43397;51.530;5.974;2023-04-26T06:54:38;75512.22;;;-145.90;31.42
57562;BME280;43397;51.530;5.974;2023-04-26T06:57:04;75441.31;;;-145.90;30.65
57562;BME280;43397;51.530;5.974;2023-04-26T06:59:29;75562.91;;;-145.90;30.93
57562;BME280;43397;51.530;5.974;2023-04-26T07:01:55;75635.84;;;-145.90;31.71
57562;BME280;43397;51.530;5.974;2023-04-26T07:04:22;75658.16;;;-145.90;31.86
57562;BME280;43397;51.530;5.974;2023-04-26T07:06:47;75670.31;;;-145.90;32.36
57562;BME280;43397;51.530;5.974;2023-04-26T07:09:13;75625.72;;;-145.90;31.81
57562;BME280;43397;51.530;5.974;2023-04-26T07:11:39;75500.06;;;-145.90;30.77
57562;BME280;43397;51.530;5.974;2023-04-26T07:14:04;75520.34;;;-145.90;31.23
57562;BME280;43397;51.530;5.974;2023-04-26T07:16:30;75483.84;;;-145.90;30.33
57562;BME280;43397;51.530;5.974;2023-04-26T07:18:56;75554.78;;;-145.90;30.95
57562;BME280;43397;51.530;5.974;2023-04-26T07:21:23;75526.41;;;-145.90;30.98
57562;BME280;43397;51.530;5.974;2023-04-26T07:23:52;75532.50;;;-145.90;30.68
57562;BME280;43397;51.530;5.974;2023-04-26T07:26:18;75571.00;;;-145.90;30.82
57562;BME280;43397;51.530;5.974;2023-04-26T07:28:43;75542.63;;;-145.90;31.09
57562;BME280;43397;51.530;5.974;2023-04-26T07:31:09;75591.28;;;-145.90;30.24
57562;BME280;43397;51.530;5.974;2023-04-26T07:33:35;75639.91;;;-145.90;30.98
57562;BME280;43397;51.530;5.974;2023-04-26T07:36:00;75676.38;;;-145.90;31.34
57562;BME280;43397;51.530;5.974;2023-04-26T07:38:27;75603.44;;;-145.90;31.55
57562;BME280;43397;51.530;5.974;2023-04-26T07:40:54;75643.97;;;-145.90;30.87
57562;BME280;43397;51.530;5.974;2023-04-26T07:43:20;75560.88;;;-145.90;30.82
57562;BME280;43397;51.530;5.974;2023-04-26T07:45:46;75530.47;;;-145.90;30.26
57562;BME280;43397;51.530;5.974;2023-04-26T07:48:11;75522.38;;;-145.90;30.66
57562;BME280;43397;51.530;5.974;2023-04-26T07:50:37;75597.34;;;-145.90;29.71
57562;BME280;43397;51.530;5.974;2023-04-26T07:53:03;75489.94;;;-145.90;29.82
57562;BME280;43397;51.530;5.974;2023-04-26T07:55:30;75562.91;;;-145.90;29.60
57562;BME280;43397;51.530;5.974;2023-04-26T07:57:56;75481.84;;;-145.90;29.74
57562;BME280;43397;51.530;5.974;2023-04-26T08:00:22;75485.88;;;-145.90;29.79
57562;BME280;43397;51.530;5.974;2023-04-26T08:02:47;75433.19;;;-145.90;28.68
57562;BME280;43397;51.530;5.974;2023-04-26T08:05:13;75469.66;;;-145.90;29.19
57562;BME280;43397;51.530;5.974;2023-04-26T08:07:39;75518.31;;;-145.90;28.94
57562;BME280;43397;51.530;5.974;2023-04-26T08:10:06;75656.13;;;-145.90;28.24
57562;BME280;43397;51.530;5.974;2023-04-26T08:12:33;75706.78;;;-145.90;29.62
57562;BME280;43397;51.530;5.974;2023-04-26T08:14:59;75816.22;;;-145.90;29.91
57562;BME280;43397;51.530;5.974;2023-04-26T08:17:25;75652.06;;;-145.90;29.44
57562;BME280;43397;51.530;5.974;2023-04-26T08:19:51;75581.13;;;-145.90;28.84
57562;BME280;43397;51.530;5.974;2023-04-26T08:22:16;75366.31;;;-145.90;29.08
57562;BME280;43397;51.530;5.974;2023-04-26T08:24:46;75337.94;;;-145.90;27.53
57562;BME280;43397;51.530;5.974;2023-04-26T08:27:12;75242.69;;;-145.90;26.56
57562;BME280;43397;51.530;5.974;2023-04-26T08:29:39;75307.53;;;-145.90;28.10
57562;BME280;43397;51.530;5.974;2023-04-26T08:32:05;75234.59;;;-145.90;26.71
57562;BME280;43397;51.530;5.974;2023-04-26T08:34:30;75299.44;;;-145.90;27.34
57562;BME280;43397;51.530;5.974;2023-04-26T08:36:56;75250.81;;;-145.90;26.60
57562;BME280;43397;51.530;5.974;2023-04-26T08:39:21;75238.66;;;-145.90;27.00
57562;BME280;43397;51.530;5.974;2023-04-26T08:41:52;75356.19;;;-145.90;27.32
57562;BME280;43397;51.530;5.974;2023-04-26T08:44:21;75475.75;;;-145.90;28.08
57562;BME280;43397;51.530;5.974;2023-04-26T08:46:58;75617.63;;;-145.90;28.88
57562;BME280;43397;51.530;5.974;2023-04-26T08:49:30;75508.19;;;-145.90;28.78
57562;BME280;43397;51.530;5.974;2023-04-26T08:52:01;75346.06;;;-145.90;27.72
57562;BME280;43397;51.530;5.974;2023-04-26T08:54:28;75333.91;;;-145.90;26.78
57562;BME280;43397;51.530;5.974;2023-04-26T08:56:57;75435.22;;;-145.90;27.25
57562;BME280;43397;51.530;5.974;2023-04-26T08:59:23;75437.25;;;-145.90;27.55
57562;BME280;43397;51.530;5.974;2023-04-26T09:01:51;75483.84;;;-145.90;28.28
57562;BME280;43397;51.530;5.974;2023-04-26T09:04:17;75498.03;;;-145.90;27.78
57562;BME280;43397;51.530;5.974;2023-04-26T09:06:43;75506.16;;;-145.90;27.58
57562;BME280;43397;51.530;5.974;2023-04-26T09:09:10;75530.47;;;-145.90;27.67
57562;BME280;43397;51.530;5.974;2023-04-26T09:11:58;75702.75;;;-145.90;28.33
57562;BME280;43397;51.530;5.974;2023-04-26T09:14:24;75706.78;;;-145.90;28.66
57562;BME280;43397;51.530;5.974;2023-04-26T09:16:51;75708.81;;;-145.90;27.85
57562;BME280;43397;51.530;5.974;2023-04-26T09:19:17;75745.28;;;-145.90;28.09
57562;BME280;43397;51.530;5.974;2023-04-26T09:21:44;75652.06;;;-145.90;28.15
57562;BME280;43397;51.530;5.974;2023-04-26T09:24:10;75664.22;;;-145.90;28.05
57562;BME280;43397;51.530;5.974;2023-04-26T09:26:36;75840.56;;;-145.90;28.78
57562;BME280;43397;51.530;5.974;2023-04-26T09:29:12;76035.13;;;-145.90;29.51
57562;BME280;43397;51.530;5.974;2023-04-26T09:31:41;75879.06;;;-145.90;29.99
57562;BME280;43397;51.530;5.974;2023-04-26T09:34:08;75781.78;;;-145.90;29.11
57562;BME280;43397;51.530;5.974;2023-04-26T09:36:45;75858.78;;;-145.90;29.58
57562;BME280;43397;51.530;5.974;2023-04-26T09:39:11;75739.22;;;-145.90;29.02
57562;BME280;43397;51.530;5.974;2023-04-26T09:41:43;75686.53;;;-145.90;28.65
57562;BME280;43397;51.530;5.974;2023-04-26T09:44:20;75731.13;;;-145.90;28.75
57562;BME280;43397;51.530;5.974;2023-04-26T09:46:56;75603.44;;;-145.90;27.89
57562;BME280;43397;51.530;5.974;2023-04-26T09:49:24;75666.25;;;-145.90;28.57
57562;BME280;43397;51.530;5.974;2023-04-26T09:51:59;75753.41;;;-145.90;27.98
57562;BME280;43397;51.530;5.974;2023-04-26T09:54:37;75767.59;;;-145.90;29.13
57562;BME280;43397;51.530;5.974;2023-04-26T09:57:02;75933.78;;;-145.90;29.10
57562;BME280;43397;51.530;5.974;2023-04-26T09:59:38;75956.09;;;-145.90;30.57
57562;BME280;43397;51.530;5.974;2023-04-26T10:02:04;75919.59;;;-145.90;30.01
57562;BME280;43397;51.530;5.974;2023-04-26T10:04:32;75779.75;;;-145.90;29.07
57562;BME280;43397;51.530;5.974;2023-04-26T10:06:58;75913.53;;;-145.90;29.26
57562;BME280;43397;51.530;5.974;2023-04-26T10:09:24;75798.00;;;-145.90;29.50
57562;BME280;43397;51.530;5.974;2023-04-26T10:11:51;75692.59;;;-145.90;28.08
57562;BME280;43397;51.530;5.974;2023-04-26T10:14:17;75524.38;;;-145.90;27.34
57562;BME280;43397;51.530;5.974;2023-04-26T10:16:43;75461.56;;;-145.90;27.92
57562;BME280;43397;51.530;5.974;2023-04-26T10:19:10;75425.09;;;-145.90;28.07
57562;BME280;43397;51.530;5.974;2023-04-26T10:21:38;75348.06;;;-145.90;27.47
57562;BME280;43397;51.530;5.974;2023-04-26T10:24:06;75366.31;;;-145.90;26.20
57562;BME280;43397;51.530;5.974;2023-04-26T10:26:45;75412.94;;;-145.90;25.90
57562;BME280;43397;51.530;5.974;2023-04-26T10:29:11;75390.63;;;-145.90;26.01
57562;BME280;43397;51.530;5.974;2023-04-26T10:32:05;75384.56;;;-145.90;25.45
57562;BME280;43397;51.530;5.974;2023-04-26T10:34:32;75469.66;;;-145.90;26.34
57562;BME280;43397;51.530;5.974;2023-04-26T10:37:13;75814.22;;;-145.90;28.24
57562;BME280;43397;51.530;5.974;2023-04-26T10:39:40;75866.91;;;-145.90;28.40
57562;BME280;43397;51.530;5.974;2023-04-26T10:42:19;75643.97;;;-145.90;28.25
57562;BME280;43397;51.530;5.974;2023-04-26T10:44:45;75818.25;;;-145.90;28.71
57562;BME280;43397;51.530;5.974;2023-04-26T10:47:29;75633.84;;;-145.90;28.08
57562;BME280;43397;51.530;5.974;2023-04-26T10:50:05;75467.66;;;-145.90;27.42
57562;BME280;43397;51.530;5.974;2023-04-26T10:52:33;75344.03;;;-145.90;26.52
57562;BME280;43397;51.530;5.974;2023-04-26T10:54:59;75279.19;;;-145.90;26.42
57562;BME280;43397;51.530;5.974;2023-04-26T10:57:47;75248.78;;;-145.90;25.59
57562;BME280;43397;51.530;5.974;2023-04-26T11:00:17;75155.56;;;-145.90;24.71
57562;BME280;43397;51.530;5.974;2023-04-26T11:02:44;75113.00;;;-145.90;24.90
57562;BME280;43397;51.530;5.974;2023-04-26T11:05:10;75589.25;;;-145.90;25.37
57562;BME280;43397;51.530;5.974;2023-04-26T11:07:37;75374.41;;;-145.90;25.54
57562;BME280;43397;51.530;5.974;2023-04-26T11:10:07;75208.25;;;-145.90;24.32
57562;BME280;43397;51.530;5.974;2023-04-26T11:12:32;74961.03;;;-145.90;24.47
57562;BME280;43397;51.530;5.974;2023-04-26T11:14:58;74944.81;;;-145.90;24.21
57562;BME280;43397;51.530;5.974;2023-04-26T11:17:24;75060.31;;;-145.90;23.71
57562;BME280;43397;51.530;5.974;2023-04-26T11:19:50;75441.31;;;-145.90;24.73
57562;BME280;43397;51.530;5.974;2023-04-26T11:22:20;75121.13;;;-145.90;25.21
57562;BME280;43397;51.530;5.974;2023-04-26T11:24:48;74912.41;;;-145.90;24.76
57562;BME280;43397;51.530;5.974;2023-04-26T11:27:14;74811.09;;;-145.90;23.61
57562;BME280;43397;51.530;5.974;2023-04-26T11:29:40;74717.88;;;-145.90;23.54
57562;BME280;43397;51.530;5.974;2023-04-26T11:32:06;74772.59;;;-145.90;23.03
57562;BME280;43397;51.530;5.974;2023-04-26T11:34:33;75052.22;;;-145.90;23.99
57562;BME280;43397;51.530;5.974;2023-04-26T11:37:00;75325.78;;;-145.90;25.49
57562;BME280;43397;51.530;5.974;2023-04-26T11:39:26;75167.72;;;-145.90;24.82
57562;BME280;43397;51.530;5.974;2023-04-26T11:42:03;75157.59;;;-145.90;25.59
57562;BME280;43397;51.530;5.974;2023-04-26T11:44:29;75106.94;;;-145.90;24.76
57562;BME280;43397;51.530;5.974;2023-04-26T11:46:55;75086.66;;;-145.90;24.34
57562;BME280;43397;51.530;5.974;2023-04-26T11:49:21;74981.28;;;-145.90;24.23
57562;BME280;43397;51.530;5.974;2023-04-26T11:51:47;75019.78;;;-145.90;23.05
57562;BME280;43397;51.530;5.974;2023-04-26T11:54:26;74746.25;;;-145.90;23.37
57562;BME280;43397;51.530;5.974;2023-04-26T11:56:51;74492.97;;;-145.90;22.19
57562;BME280;43397;51.530;5.974;2023-04-26T11:59:23;74669.25;;;-145.90;22.58
57562;BME280;43397;51.530;5.974;2023-04-26T12:01:50;74863.75;;;-145.90;22.82
57562;BME280;43397;51.530;5.974;2023-04-26T12:04:15;74784.75;;;-145.90;22.66
57562;BME280;43397;51.530;5.974;2023-04-26T12:06:42;74884.03;;;-145.90;24.64
57562;BME280;43397;51.530;5.974;2023-04-26T12:09:08;74910.38;;;-145.90;22.83
57562;BME280;43397;51.530;5.974;2023-04-26T12:11:34;75149.47;;;-145.90;23.71
57562;BME280;43397;51.530;5.974;2023-04-26T12:14:00;75329.84;;;-145.90;24.75
57562;BME280;43397;51.530;5.974;2023-04-26T12:16:27;75202.16;;;-145.90;25.81
57562;BME280;43397;51.530;5.974;2023-04-26T12:18:53;75175.81;;;-145.90;24.98
57562;BME280;43397;51.530;5.974;2023-04-26T12:21:19;75133.28;;;-145.90;24.41
57562;BME280;43397;51.530;5.974;2023-04-26T12:23:45;75141.38;;;-145.90;23.99
57562;BME280;43397;51.530;5.974;2023-04-26T12:26:11;75021.81;;;-145.90;23.21
57562;BME280;43397;51.530;5.974;2023-04-26T12:28:36;75003.59;;;-145.90;23.26
57562;BME280;43397;51.530;5.974;2023-04-26T12:31:02;74979.25;;;-145.90;23.42
57562;BME280;43397;51.530;5.974;2023-04-26T12:33:29;75029.94;;;-145.90;23.18
57562;BME280;43397;51.530;5.974;2023-04-26T12:35:55;75038.03;;;-145.90;24.53
57562;BME280;43397;51.530;5.974;2023-04-26T12:38:21;75246.75;;;-145.90;23.87